createdAt,value
2023-09-08T00:02:04.635Z,28.40
2023-09-08T00:04:31.501Z,27.80
2023-09-08T00:06:58.314Z,27.40
2023-09-08T00:09:25.118Z,28.00
2023-09-08T00:11:51.770Z,28.70
2023-09-08T00:14:18.819Z,29.70
2023-09-08T00:16:45.571Z,27.00
2023-09-08T00:19:13.238Z,28.80
2023-09-08T00:21:40.110Z,29.30
2023-09-08T00:24:07.144Z,28.30
2023-09-08T00:26:34.396Z,27.90
2023-09-08T00:29:01.396Z,26.90
2023-09-08T00:31:28.190Z,27.90
2023-09-08T00:33:55.018Z,26.10
2023-09-08T00:36:21.951Z,26.20
2023-09-08T00:38:48.637Z,29.10
2023-09-08T00:41:15.403Z,27.00
2023-09-08T00:43:42.335Z,29.30
2023-09-08T00:46:10.685Z,29.20
2023-09-08T00:48:38.627Z,28.50
2023-09-08T00:51:05.964Z,27.40
2023-09-08T00:53:33.092Z,27.30
2023-09-08T00:56:01.250Z,27.10
2023-09-08T00:58:28.037Z,27.20
2023-09-08T01:00:54.800Z,26.90
2023-09-08T01:03:21.803Z,24.60
2023-09-08T01:05:49.111Z,26.20
2023-09-08T01:08:17.001Z,27.30
2023-09-08T01:10:44.128Z,24.90
2023-09-08T01:13:10.984Z,26.90
2023-09-08T01:15:38.181Z,27.30
2023-09-08T01:18:05.674Z,27.10
2023-09-08T01:20:41.149Z,27.40
2023-09-08T01:23:19.270Z,26.90
2023-09-08T01:25:59.777Z,28.30
2023-09-08T01:28:28.283Z,27.10
2023-09-08T01:30:57.343Z,26.10
2023-09-08T01:33:24.898Z,26.50
2023-09-08T01:35:52.564Z,26.90
2023-09-08T01:38:19.325Z,26.00
2023-09-08T01:40:46.155Z,25.10
2023-09-08T01:43:12.898Z,24.70
2023-09-08T01:45:39.772Z,25.00
2023-09-08T01:48:06.780Z,24.90
2023-09-08T01:50:33.456Z,24.60
2023-09-08T01:53:00.201Z,25.90
2023-09-08T01:55:26.852Z,26.60
2023-09-08T01:57:53.645Z,26.30
2023-09-08T02:00:20.585Z,26.00
2023-09-08T02:02:47.223Z,26.70
2023-09-08T02:05:14.040Z,25.30
2023-09-08T02:07:40.980Z,26.00
2023-09-08T02:10:08.040Z,24.90
2023-09-08T02:12:34.783Z,25.00
2023-09-08T02:15:01.481Z,24.40
2023-09-08T02:17:28.496Z,24.00
2023-09-08T02:19:55.236Z,25.20
2023-09-08T02:22:21.969Z,25.90
2023-09-08T02:24:48.625Z,27.50
2023-09-08T02:27:15.528Z,28.10
2023-09-08T02:29:42.365Z,28.80
2023-09-08T02:32:08.894Z,29.20
2023-09-08T02:34:37.025Z,27.70
2023-09-08T02:37:03.880Z,29.60
2023-09-08T02:39:30.557Z,26.90
2023-09-08T02:41:57.468Z,29.20
2023-09-08T02:44:24.114Z,29.70
2023-09-08T02:46:51.386Z,31.00
2023-09-08T02:49:18.209Z,30.30
2023-09-08T02:51:44.936Z,28.80
2023-09-08T02:54:11.819Z,30.20
2023-09-08T02:56:38.469Z,30.20
2023-09-08T02:59:05.208Z,30.30
2023-09-08T03:01:32.038Z,34.30
2023-09-08T03:03:59.090Z,33.50
2023-09-08T03:06:25.962Z,34.30
2023-09-08T03:08:52.704Z,34.70
2023-09-08T03:11:19.451Z,34.40
2023-09-08T03:13:46.210Z,32.70
2023-09-08T03:16:13.179Z,33.20
2023-09-08T03:18:40.023Z,31.60
2023-09-08T03:21:07.778Z,30.40
2023-09-08T03:23:34.527Z,29.50
2023-09-08T03:26:01.629Z,31.40
2023-09-08T03:28:28.313Z,31.30
2023-09-08T03:30:55.275Z,32.40
2023-09-08T03:33:22.343Z,33.30
2023-09-08T03:35:49.483Z,33.60
2023-09-08T03:38:16.125Z,33.10
2023-09-08T03:40:42.969Z,33.00
2023-09-08T03:43:09.754Z,33.00
2023-09-08T03:45:36.476Z,31.20
2023-09-08T03:48:03.457Z,33.20
2023-09-08T03:50:31.210Z,35.00
2023-09-08T03:52:58.292Z,35.80
2023-09-08T03:55:25.323Z,35.20
2023-09-08T03:57:52.079Z,35.50
2023-09-08T04:00:19.075Z,36.70
2023-09-08T04:02:46.226Z,36.50
2023-09-08T04:05:13.046Z,34.70
2023-09-08T04:07:39.872Z,34.60
2023-09-08T04:10:07.538Z,35.30
2023-09-08T04:12:34.390Z,36.30
2023-09-08T04:15:01.148Z,36.50
2023-09-08T04:17:27.881Z,38.40
2023-09-08T04:19:54.852Z,38.60
2023-09-08T04:22:21.895Z,38.50
2023-09-08T04:24:48.628Z,38.80
2023-09-08T04:27:15.968Z,37.60
2023-09-08T04:29:43.038Z,43.20
2023-09-08T04:32:09.628Z,39.50
2023-09-08T04:34:41.041Z,36.80
2023-09-08T04:37:08.528Z,38.40
2023-09-08T04:39:36.405Z,38.70
2023-09-08T04:42:03.336Z,36.40
2023-09-08T04:44:29.964Z,40.00
2023-09-08T04:46:56.667Z,37.60
2023-09-08T04:49:23.362Z,37.20
2023-09-08T04:51:50.019Z,40.90
2023-09-08T04:54:16.866Z,36.10
2023-09-08T04:56:43.594Z,38.60
2023-09-08T04:59:10.464Z,35.30
2023-09-08T05:01:37.114Z,36.70
2023-09-08T05:04:04.443Z,35.10
2023-09-08T05:06:31.216Z,32.90
2023-09-08T05:09:00.004Z,32.90
2023-09-08T05:11:26.917Z,33.10
2023-09-08T05:13:53.634Z,33.70
2023-09-08T05:16:21.188Z,35.50
2023-09-08T05:18:48.092Z,31.90
2023-09-08T05:21:14.787Z,33.30
2023-09-08T05:23:41.525Z,32.30
2023-09-08T05:26:08.306Z,34.70
2023-09-08T05:28:37.152Z,35.10
2023-09-08T05:33:32.639Z,34.20
2023-09-08T05:35:59.436Z,32.60
2023-09-08T05:38:26.101Z,33.70
2023-09-08T05:40:52.833Z,34.10
2023-09-08T05:43:19.503Z,33.50
2023-09-08T05:45:46.316Z,32.80
2023-09-08T05:48:13.947Z,32.00
2023-09-08T05:50:41.065Z,30.70
2023-09-08T05:53:07.797Z,35.80
2023-09-08T05:55:34.437Z,33.70
2023-09-08T05:58:01.188Z,34.90
2023-09-08T06:00:27.944Z,35.20
2023-09-08T06:02:54.871Z,35.40
2023-09-08T06:05:21.628Z,34.40
2023-09-08T06:08:01.056Z,36.50
2023-09-08T06:10:32.356Z,34.20
2023-09-08T06:12:59.061Z,33.00
2023-09-08T06:15:25.838Z,32.80
2023-09-08T06:17:52.740Z,32.00
2023-09-08T06:20:19.530Z,32.30
2023-09-08T06:22:46.371Z,29.90
2023-09-08T06:25:13.200Z,29.80
2023-09-08T06:27:40.562Z,29.80
2023-09-08T06:30:08.021Z,27.70
2023-09-08T06:32:34.912Z,26.70
2023-09-08T06:35:01.723Z,25.20
2023-09-08T06:37:28.355Z,25.50
2023-09-08T06:39:56.231Z,26.80
2023-09-08T06:42:22.998Z,24.50
2023-09-08T06:44:49.717Z,27.20
2023-09-08T06:47:16.362Z,25.00
2023-09-08T06:49:43.262Z,25.10
2023-09-08T06:52:09.975Z,23.60
2023-09-08T06:54:36.628Z,24.60
2023-09-08T06:57:03.477Z,24.00
2023-09-08T06:59:30.224Z,23.60
2023-09-08T07:01:56.969Z,21.60
2023-09-08T07:04:24.242Z,22.70
2023-09-08T07:06:51.073Z,20.90
2023-09-08T07:09:17.816Z,21.60
2023-09-08T07:11:44.474Z,20.40
2023-09-08T07:14:11.209Z,20.30
2023-09-08T07:16:38.038Z,19.80
2023-09-08T07:19:05.476Z,18.80
2023-09-08T07:21:32.160Z,18.70
2023-09-08T07:23:58.807Z,17.30
2023-09-08T07:26:25.452Z,19.50
2023-09-08T07:28:52.301Z,17.70
2023-09-08T07:31:19.058Z,16.50
2023-09-08T07:33:45.753Z,15.50
2023-09-08T07:36:12.672Z,14.40
2023-09-08T07:38:39.540Z,15.50
2023-09-08T07:41:06.445Z,14.80
2023-09-08T07:43:33.126Z,13.50
2023-09-08T07:45:59.878Z,12.80
2023-09-08T07:48:26.942Z,12.80
2023-09-08T07:50:53.846Z,14.10
2023-09-08T07:53:20.509Z,12.40
2023-09-08T07:55:47.247Z,13.40
2023-09-08T07:58:14.236Z,12.10
2023-09-08T08:00:41.035Z,12.90
2023-09-08T08:03:07.817Z,11.70
2023-09-08T08:05:34.609Z,12.70
2023-09-08T08:08:01.448Z,11.40
2023-09-08T08:10:28.420Z,11.10
2023-09-08T08:12:55.163Z,10.40
2023-09-08T08:15:22.262Z,10.60
2023-09-08T08:17:49.289Z,11.00
2023-09-08T08:20:16.238Z,10.60
2023-09-08T08:22:42.945Z,9.40
2023-09-08T08:25:11.624Z,11.00
2023-09-08T08:27:41.000Z,11.80
2023-09-08T08:30:08.720Z,11.10
2023-09-08T08:32:35.579Z,10.40
2023-09-08T08:35:02.419Z,10.70
2023-09-08T08:37:29.807Z,9.90
2023-09-08T08:39:56.454Z,9.80
2023-09-08T08:42:23.133Z,9.00
2023-09-08T08:44:50.644Z,8.40
2023-09-08T08:47:18.074Z,8.70
2023-09-08T08:49:45.706Z,8.30
2023-09-08T08:52:12.835Z,7.60
2023-09-08T08:54:40.723Z,8.40
2023-09-08T08:57:08.410Z,9.20
2023-09-08T08:59:35.228Z,6.90
2023-09-08T09:02:03.937Z,6.40
2023-09-08T09:04:31.013Z,7.10
2023-09-08T09:06:58.421Z,7.50
2023-09-08T09:09:30.014Z,6.90
2023-09-08T09:11:56.959Z,7.50
2023-09-08T09:14:23.849Z,7.40
2023-09-08T09:16:50.871Z,7.30
2023-09-08T09:19:26.568Z,7.60
2023-09-08T09:21:53.347Z,7.50
2023-09-08T09:24:32.379Z,6.80
2023-09-08T09:26:59.213Z,7.10
2023-09-08T09:29:26.084Z,7.30
2023-09-08T09:31:58.005Z,6.50
2023-09-08T09:34:25.179Z,6.50
2023-09-08T09:36:52.845Z,6.60
2023-09-08T09:39:23.903Z,7.30
2023-09-08T09:41:54.753Z,5.80
2023-09-08T09:44:23.055Z,5.90
2023-09-08T09:46:50.204Z,6.20
2023-09-08T09:49:17.791Z,6.60
2023-09-08T09:51:54.424Z,6.10
2023-09-08T09:54:21.177Z,5.50
2023-09-08T09:56:49.657Z,6.10
2023-09-08T09:59:18.048Z,5.90
2023-09-08T10:01:45.712Z,5.60
2023-09-08T10:04:13.700Z,5.80
2023-09-08T10:06:40.912Z,4.70
2023-09-08T10:09:08.294Z,5.90
2023-09-08T10:11:49.778Z,5.20
2023-09-08T10:14:18.270Z,5.50
2023-09-08T10:16:46.737Z,4.10
2023-09-08T10:19:13.708Z,4.50
2023-09-08T10:21:47.466Z,4.30
2023-09-08T10:24:39.579Z,4.60
2023-09-08T10:27:06.518Z,4.70
2023-09-08T10:29:34.074Z,5.00
2023-09-08T10:32:02.142Z,4.70
2023-09-08T10:34:31.089Z,5.00
2023-09-08T10:36:58.103Z,3.90
2023-09-08T10:39:37.889Z,3.80
2023-09-08T10:44:51.607Z,4.10
2023-09-08T10:47:24.821Z,4.10
2023-09-08T10:49:52.694Z,4.50
2023-09-08T10:52:22.944Z,4.60
2023-09-08T10:54:51.345Z,4.30
2023-09-08T10:57:29.004Z,4.20
2023-09-08T10:59:58.187Z,4.60
2023-09-08T11:02:40.153Z,4.40
2023-09-08T11:05:11.982Z,5.10
2023-09-08T11:07:39.566Z,4.90
2023-09-08T11:10:07.567Z,4.70
2023-09-08T11:12:34.880Z,4.30
2023-09-08T11:15:03.723Z,4.30
2023-09-08T11:17:30.471Z,4.00
2023-09-08T11:19:57.885Z,4.90
2023-09-08T11:22:26.457Z,4.10
2023-09-08T11:24:54.550Z,4.30
2023-09-08T11:27:22.731Z,4.60
2023-09-08T11:29:50.713Z,4.70
2023-09-08T11:32:17.469Z,4.40
2023-09-08T11:34:44.202Z,4.40
2023-09-08T11:37:11.394Z,4.20
2023-09-08T11:39:39.840Z,3.90
2023-09-08T11:42:08.324Z,4.40
2023-09-08T11:44:36.831Z,3.70
2023-09-08T11:47:05.140Z,4.00
2023-09-08T11:49:39.052Z,4.10
2023-09-08T11:52:06.734Z,3.80
2023-09-08T11:54:36.200Z,3.90
2023-09-08T11:57:05.741Z,4.00
2023-09-08T11:59:34.769Z,4.00
2023-09-08T12:02:02.069Z,3.80
2023-09-08T12:04:29.159Z,4.10
2023-09-08T12:06:56.504Z,3.60
2023-09-08T12:09:24.156Z,3.70
2023-09-08T12:11:51.400Z,4.00
2023-09-08T12:14:18.142Z,4.00
2023-09-08T12:16:45.070Z,3.60
2023-09-08T12:19:31.611Z,3.20
2023-09-08T12:22:03.194Z,4.00
2023-09-08T12:24:54.699Z,4.20
2023-09-08T12:27:21.346Z,4.10
2023-09-08T12:29:59.054Z,3.60
2023-09-08T12:32:27.031Z,3.80
2023-09-08T12:34:54.078Z,3.70
2023-09-08T12:37:24.855Z,3.80
2023-09-08T12:39:52.343Z,3.40
2023-09-08T12:42:19.658Z,3.70
2023-09-08T12:44:46.853Z,3.50
2023-09-08T12:47:13.703Z,3.10
2023-09-08T12:49:40.954Z,4.40
2023-09-08T12:52:07.786Z,4.00
2023-09-08T12:54:34.535Z,3.90
2023-09-08T12:57:01.266Z,3.80
2023-09-08T12:59:28.206Z,4.10
2023-09-08T13:01:55.065Z,3.70
2023-09-08T13:04:21.807Z,3.60
2023-09-08T13:06:48.480Z,3.50
2023-09-08T13:09:15.196Z,3.80
2023-09-08T13:11:43.068Z,3.50
2023-09-08T13:14:09.948Z,3.80
2023-09-08T13:16:39.609Z,3.60
2023-09-08T13:21:33.013Z,3.40
2023-09-08T13:23:59.658Z,3.40
2023-09-08T13:26:26.403Z,3.80
2023-09-08T13:28:53.523Z,4.10
2023-09-08T13:31:20.719Z,3.90
2023-09-08T13:33:47.944Z,3.60
2023-09-08T13:36:14.828Z,3.70
2023-09-08T13:38:41.568Z,3.20
2023-09-08T13:41:08.212Z,4.20
2023-09-08T13:43:35.061Z,4.50
2023-09-08T13:46:01.816Z,4.40
2023-09-08T13:48:28.885Z,4.40
2023-09-08T13:50:56.401Z,4.60
2023-09-08T13:53:40.604Z,4.40
2023-09-08T13:56:10.088Z,4.30
2023-09-08T13:58:48.533Z,3.90
2023-09-08T14:01:20.698Z,4.10
2023-09-08T14:06:21.360Z,4.00
2023-09-08T14:11:27.634Z,4.30
2023-09-08T14:14:02.403Z,4.20
2023-09-08T14:16:29.545Z,4.30
2023-09-08T14:18:56.270Z,4.10
2023-09-08T14:21:22.916Z,4.10
2023-09-08T14:23:49.698Z,4.00
2023-09-08T14:26:16.585Z,4.20
2023-09-08T14:28:43.464Z,3.80
2023-09-08T14:31:10.201Z,3.70
2023-09-08T14:33:37.381Z,4.40
2023-09-08T14:36:04.579Z,3.80
2023-09-08T14:38:31.362Z,3.70
2023-09-08T14:41:00.187Z,3.90
2023-09-08T14:43:28.036Z,3.90
2023-09-08T14:45:55.589Z,4.10
2023-09-08T14:48:22.417Z,4.00
2023-09-08T14:50:49.306Z,3.80
2023-09-08T14:53:17.327Z,4.00
2023-09-08T14:55:44.126Z,3.70
2023-09-08T14:58:11.902Z,3.90
2023-09-08T15:00:38.731Z,3.60
2023-09-08T15:03:06.601Z,3.70
2023-09-08T15:05:34.592Z,4.20
2023-09-08T15:08:01.819Z,3.90
2023-09-08T15:10:29.250Z,4.20
2023-09-08T15:12:56.206Z,4.20
2023-09-08T15:15:22.933Z,4.40
2023-09-08T15:17:49.659Z,4.70
2023-09-08T15:20:16.503Z,4.50
2023-09-08T15:22:43.175Z,4.30
2023-09-08T15:25:10.607Z,4.60
2023-09-08T15:27:37.244Z,4.80
2023-09-08T15:30:04.501Z,5.10
2023-09-08T15:32:31.165Z,4.70
2023-09-08T15:34:57.791Z,4.70
2023-09-08T15:37:24.483Z,4.60
2023-09-08T15:39:51.370Z,4.80
2023-09-08T15:42:17.971Z,5.10
2023-09-08T15:44:44.671Z,5.10
2023-09-08T15:47:11.411Z,5.30
2023-09-08T15:49:38.085Z,5.10
2023-09-08T15:52:15.588Z,4.50
2023-09-08T15:54:43.904Z,5.10
2023-09-08T15:57:10.744Z,5.20
2023-09-08T15:59:37.448Z,5.20
2023-09-08T16:02:04.476Z,4.90
2023-09-08T16:04:31.506Z,5.30
2023-09-08T16:06:58.298Z,5.10
2023-09-08T16:09:24.941Z,7.50
2023-09-08T16:11:51.597Z,7.90
2023-09-08T16:14:18.233Z,8.70
2023-09-08T16:16:44.992Z,8.80
2023-09-08T16:19:11.933Z,9.60
2023-09-08T16:21:38.570Z,10.20
2023-09-08T16:24:05.414Z,9.30
2023-09-08T16:26:32.088Z,10.10
2023-09-08T16:28:58.812Z,9.80
2023-09-08T16:31:25.479Z,10.10
2023-09-08T16:33:52.197Z,9.30
2023-09-08T16:36:18.946Z,9.10
2023-09-08T16:38:45.696Z,10.10
2023-09-08T16:41:12.349Z,10.40
2023-09-08T16:43:39.255Z,11.60
2023-09-08T16:46:06.171Z,12.60
2023-09-08T16:48:32.973Z,17.60
2023-09-08T16:50:59.617Z,20.30
2023-09-08T16:53:26.280Z,17.20
2023-09-08T16:55:53.056Z,17.40
2023-09-08T16:58:19.775Z,17.20
2023-09-08T17:00:46.839Z,12.60
2023-09-08T17:03:13.609Z,12.80
2023-09-08T17:05:42.760Z,12.10
2023-09-08T17:08:10.649Z,11.70
2023-09-08T17:10:37.466Z,10.80
2023-09-08T17:13:04.274Z,10.30
2023-09-08T17:15:31.045Z,8.90
2023-09-08T17:17:57.817Z,9.30
2023-09-08T17:20:24.663Z,9.70
2023-09-08T17:22:51.652Z,11.10
2023-09-08T17:25:18.391Z,10.50
2023-09-08T17:27:45.102Z,10.20
2023-09-08T17:30:12.499Z,10.30
2023-09-08T17:32:39.351Z,10.90
2023-09-08T17:35:06.715Z,11.00
2023-09-08T17:37:33.562Z,11.50
2023-09-08T17:40:00.309Z,10.90
2023-09-08T17:42:26.949Z,11.50
2023-09-08T17:44:53.593Z,11.20
2023-09-08T17:47:20.335Z,11.10
2023-09-08T17:49:46.980Z,12.20
2023-09-08T17:52:13.663Z,12.00
2023-09-08T17:54:40.402Z,13.50
2023-09-08T17:57:07.127Z,13.00
2023-09-08T17:59:33.903Z,12.70
2023-09-08T18:02:00.785Z,13.30
2023-09-08T18:04:27.781Z,12.90
2023-09-08T18:06:54.693Z,13.20
2023-09-08T18:09:21.668Z,14.20
2023-09-08T18:11:48.420Z,14.30
2023-09-08T18:14:15.077Z,14.30
2023-09-08T18:16:42.046Z,15.40
2023-09-08T18:19:08.960Z,17.00
2023-09-08T18:21:35.688Z,16.30
2023-09-08T18:24:02.658Z,17.80
2023-09-08T18:26:29.300Z,17.40
2023-09-08T18:28:55.997Z,16.60
2023-09-08T18:31:22.877Z,18.70
2023-09-08T18:33:49.686Z,17.00
2023-09-08T18:36:16.389Z,17.30
2023-09-08T18:38:43.128Z,16.20
2023-09-08T18:41:09.874Z,16.00
2023-09-08T18:43:36.727Z,16.00
2023-09-08T18:46:03.672Z,15.60
2023-09-08T18:48:30.575Z,15.70
2023-09-08T18:50:57.289Z,15.30
2023-09-08T18:53:24.130Z,15.20
2023-09-08T18:55:51.126Z,15.50
2023-09-08T18:58:17.822Z,15.70
2023-09-08T19:00:45.486Z,16.10
2023-09-08T19:03:13.187Z,16.40
2023-09-08T19:05:40.108Z,16.30
2023-09-08T19:08:07.092Z,17.30
2023-09-08T19:10:34.223Z,17.10
2023-09-08T19:13:00.860Z,16.90
2023-09-08T19:15:27.499Z,16.80
2023-09-08T19:17:54.217Z,17.90
2023-09-08T19:20:20.985Z,17.30
2023-09-08T19:22:47.770Z,17.90
2023-09-08T19:25:14.510Z,17.00
2023-09-08T19:27:41.236Z,16.90
2023-09-08T19:30:08.583Z,17.90
2023-09-08T19:32:36.076Z,17.80
2023-09-08T19:35:02.837Z,17.30
2023-09-08T19:37:29.691Z,18.10
2023-09-08T19:39:56.549Z,18.20
2023-09-08T19:42:23.441Z,17.20
2023-09-08T19:44:50.182Z,17.70
2023-09-08T19:47:17.068Z,17.50
2023-09-08T19:49:43.775Z,18.60
2023-09-08T19:52:11.872Z,19.10
2023-09-08T19:54:38.510Z,18.20
2023-09-08T19:57:06.194Z,18.10
2023-09-08T19:59:33.238Z,18.40
2023-09-08T20:01:59.919Z,17.90
2023-09-08T20:04:26.664Z,16.20
2023-09-08T20:06:53.852Z,16.00
2023-09-08T20:09:21.439Z,16.50
2023-09-08T20:11:48.084Z,16.60
2023-09-08T20:14:15.033Z,18.00
2023-09-08T20:16:41.797Z,17.90
2023-09-08T20:19:08.426Z,17.70
2023-09-08T20:21:35.197Z,16.60
2023-09-08T20:24:01.914Z,17.10
2023-09-08T20:26:28.667Z,18.20
2023-09-08T20:28:55.435Z,17.50
2023-09-08T20:31:22.244Z,17.80
2023-09-08T20:33:48.889Z,18.20
2023-09-08T20:36:16.174Z,17.20
2023-09-08T20:38:43.836Z,18.50
2023-09-08T20:41:11.675Z,18.80
2023-09-08T20:43:39.260Z,18.40
2023-09-08T20:46:06.500Z,20.20
2023-09-08T20:48:35.508Z,20.90
2023-09-08T20:51:06.996Z,20.70
2023-09-08T20:53:35.367Z,20.90
2023-09-08T20:56:03.135Z,21.80
2023-09-08T20:58:30.324Z,23.00
2023-09-08T21:00:58.518Z,22.80
2023-09-08T21:03:25.931Z,22.00
2023-09-08T21:05:52.687Z,21.90
2023-09-08T21:08:20.257Z,23.10
2023-09-08T21:10:48.120Z,21.50
2023-09-08T21:13:15.279Z,21.60
2023-09-08T21:15:42.470Z,20.90
2023-09-08T21:18:09.753Z,22.40
2023-09-08T21:20:37.188Z,21.10
2023-09-08T21:23:04.415Z,21.60
2023-09-08T21:25:35.703Z,21.10
2023-09-08T21:28:03.124Z,20.90
2023-09-08T21:30:30.177Z,22.30
2023-09-08T21:32:57.270Z,21.60
2023-09-08T21:35:24.089Z,21.50
2023-09-08T21:37:50.730Z,22.40
2023-09-08T21:40:17.635Z,22.70
2023-09-08T21:42:44.726Z,22.00
2023-09-08T21:45:11.695Z,22.60
2023-09-08T21:47:38.494Z,21.20
2023-09-08T21:50:05.925Z,21.70
2023-09-08T21:52:38.356Z,24.40
2023-09-08T21:55:10.084Z,22.90
2023-09-08T21:57:36.899Z,23.30
2023-09-08T22:00:04.109Z,23.30
2023-09-08T22:02:31.138Z,23.70
2023-09-08T22:04:58.084Z,21.60
2023-09-08T22:07:25.108Z,23.70
2023-09-08T22:09:54.830Z,23.40
2023-09-08T22:12:21.572Z,22.80
2023-09-08T22:14:51.077Z,21.70
2023-09-08T22:17:17.936Z,22.70
2023-09-08T22:19:44.662Z,24.50
2023-09-08T22:22:11.421Z,23.80
2023-09-08T22:24:38.105Z,24.60
2023-09-08T22:27:05.047Z,24.30
2023-09-08T22:29:32.176Z,25.90
2023-09-08T22:31:59.096Z,27.70
2023-09-08T22:34:25.875Z,26.60
2023-09-08T22:36:52.721Z,26.70
2023-09-08T22:39:19.570Z,25.90
2023-09-08T22:41:46.217Z,25.30
2023-09-08T22:44:13.066Z,24.90
2023-09-08T22:46:39.934Z,23.40
2023-09-08T22:49:06.875Z,24.10
2023-09-08T22:51:33.708Z,23.30
2023-09-08T22:54:00.466Z,23.80
2023-09-08T22:56:27.121Z,24.00
2023-09-08T22:58:53.747Z,23.80
2023-09-08T23:01:20.605Z,23.60
2023-09-08T23:03:47.550Z,24.00
2023-09-08T23:06:14.913Z,22.90
2023-09-08T23:08:41.756Z,23.50
2023-09-08T23:11:08.535Z,24.10
2023-09-08T23:13:35.678Z,25.30
2023-09-08T23:16:03.011Z,22.90
2023-09-08T23:18:29.755Z,23.90
2023-09-08T23:20:56.565Z,21.30
2023-09-08T23:23:23.366Z,22.20
2023-09-08T23:25:50.714Z,22.80
2023-09-08T23:28:17.369Z,21.70
2023-09-08T23:30:44.048Z,23.00
2023-09-08T23:33:11.130Z,21.50
2023-09-08T23:35:38.111Z,22.00
2023-09-08T23:38:05.061Z,22.80
2023-09-08T23:40:31.713Z,23.10
2023-09-08T23:42:58.379Z,22.90
2023-09-08T23:45:25.198Z,22.60
2023-09-08T23:47:52.132Z,22.60
2023-09-08T23:50:19.053Z,22.40
2023-09-08T23:52:45.867Z,22.90
2023-09-08T23:55:12.621Z,23.00
2023-09-08T23:57:39.412Z,22.90
